createdAt,value
2018-09-19T00:01:47.616Z,99.90
2018-09-19T00:04:15.801Z,99.90
2018-09-19T00:06:43.995Z,99.90
2018-09-19T00:09:12.711Z,99.90
2018-09-19T00:11:41.291Z,99.90
2018-09-19T00:14:10.492Z,99.90
2018-09-19T00:16:38.717Z,99.90
2018-09-19T00:21:34.899Z,99.90
2018-09-19T00:24:03.091Z,99.90
2018-09-19T00:26:31.293Z,99.90
2018-09-19T00:28:59.446Z,99.90
2018-09-19T00:31:27.667Z,99.90
2018-09-19T00:33:55.915Z,99.90
2018-09-19T00:36:24.506Z,99.90
2018-09-19T00:38:52.916Z,99.90
2018-09-19T00:41:21.185Z,99.90
2018-09-19T00:43:49.376Z,99.90
2018-09-19T00:46:17.565Z,99.90
2018-09-19T00:48:45.774Z,99.90
2018-09-19T00:51:13.996Z,99.90
2018-09-19T00:53:42.180Z,99.90
2018-09-19T00:56:10.399Z,99.90
2018-09-19T00:58:38.664Z,99.90
2018-09-19T01:01:06.937Z,99.90
2018-09-19T01:03:35.133Z,99.90
2018-09-19T01:06:03.346Z,99.90
2018-09-19T01:08:31.534Z,99.90
2018-09-19T01:10:59.808Z,99.90
2018-09-19T01:13:28.007Z,99.90
2018-09-19T01:15:56.198Z,99.90
2018-09-19T01:18:24.370Z,99.90
2018-09-19T01:20:52.559Z,99.90
2018-09-19T01:23:20.778Z,99.90
2018-09-19T01:25:48.999Z,99.90
2018-09-19T01:28:17.172Z,99.90
2018-09-19T01:30:45.367Z,99.90
2018-09-19T01:33:13.575Z,99.90
2018-09-19T01:35:41.777Z,99.90
2018-09-19T01:38:09.977Z,99.90
2018-09-19T01:40:38.161Z,99.90
2018-09-19T01:43:06.360Z,99.90
2018-09-19T01:45:34.546Z,99.90
2018-09-19T01:48:02.725Z,99.90
2018-09-19T01:50:30.948Z,99.90
2018-09-19T01:52:59.127Z,99.90
2018-09-19T01:55:27.329Z,99.90
2018-09-19T01:57:55.526Z,99.90
2018-09-19T02:00:23.719Z,99.90
2018-09-19T02:02:51.972Z,99.90
2018-09-19T02:05:20.217Z,99.90
2018-09-19T02:07:48.400Z,99.90
2018-09-19T02:10:16.579Z,99.90
2018-09-19T02:12:44.822Z,99.90
2018-09-19T02:15:13.004Z,99.90
2018-09-19T02:17:41.235Z,99.90
2018-09-19T02:20:09.435Z,99.90
2018-09-19T02:22:37.627Z,99.90
2018-09-19T02:25:05.812Z,99.90
2018-09-19T02:27:34.028Z,99.90
2018-09-19T02:30:02.236Z,99.90
2018-09-19T02:32:30.504Z,99.90
2018-09-19T02:34:58.647Z,99.90
2018-09-19T02:37:26.917Z,99.90
2018-09-19T02:39:55.119Z,99.90
2018-09-19T02:42:23.351Z,99.90
2018-09-19T02:44:51.554Z,99.90
2018-09-19T02:47:19.737Z,99.90
2018-09-19T02:49:48.009Z,99.90
2018-09-19T02:52:16.176Z,99.90
2018-09-19T02:54:44.391Z,99.90
2018-09-19T02:57:12.645Z,99.90
2018-09-19T02:59:40.838Z,99.90
2018-09-19T03:02:09.893Z,99.90
2018-09-19T03:04:38.090Z,99.90
2018-09-19T03:07:06.278Z,99.90
2018-09-19T03:09:34.482Z,99.90
2018-09-19T03:12:02.708Z,99.90
2018-09-19T03:14:30.898Z,99.90
2018-09-19T03:16:59.168Z,99.90
2018-09-19T03:19:27.309Z,99.90
2018-09-19T03:21:55.541Z,99.90
2018-09-19T03:24:23.726Z,99.90
2018-09-19T03:26:51.984Z,99.90
2018-09-19T03:29:20.187Z,99.90
2018-09-19T03:31:48.444Z,99.90
2018-09-19T03:34:16.623Z,99.90
2018-09-19T03:36:44.887Z,99.90
2018-09-19T03:39:13.082Z,99.90
2018-09-19T03:41:41.384Z,99.90
2018-09-19T03:44:09.627Z,99.90
2018-09-19T03:46:38.673Z,99.90
2018-09-19T03:49:07.272Z,99.90
2018-09-19T03:51:35.632Z,99.90
2018-09-19T03:54:03.827Z,99.90
2018-09-19T03:56:32.019Z,99.90
2018-09-19T03:59:00.253Z,99.90
2018-09-19T04:01:28.462Z,99.90
2018-09-19T04:03:57.602Z,99.90
2018-09-19T04:06:25.778Z,99.90
2018-09-19T04:08:54.099Z,99.90
2018-09-19T04:11:22.289Z,99.90
2018-09-19T04:13:50.519Z,99.90
2018-09-19T04:16:18.708Z,99.90
2018-09-19T04:18:46.893Z,99.90
2018-09-19T04:21:15.100Z,99.90
2018-09-19T04:23:43.561Z,99.90
2018-09-19T04:26:11.820Z,99.90
2018-09-19T04:28:40.097Z,99.90
2018-09-19T04:31:08.712Z,99.90
2018-09-19T04:33:36.937Z,99.90
2018-09-19T04:36:05.143Z,99.90
2018-09-19T04:38:33.341Z,99.90
2018-09-19T04:41:01.530Z,99.90
2018-09-19T04:43:29.726Z,99.90
2018-09-19T04:45:57.912Z,99.90
2018-09-19T04:48:26.139Z,99.90
2018-09-19T04:50:54.324Z,99.90
2018-09-19T04:53:22.544Z,99.90
2018-09-19T04:55:50.789Z,99.90
2018-09-19T04:58:18.979Z,99.90
2018-09-19T05:00:47.468Z,99.90
2018-09-19T05:03:15.744Z,99.90
2018-09-19T05:05:43.995Z,99.90
2018-09-19T05:08:12.177Z,99.90
2018-09-19T05:10:40.469Z,99.90
2018-09-19T05:13:08.662Z,99.90
2018-09-19T05:15:36.916Z,99.90
2018-09-19T05:18:05.710Z,99.90
2018-09-19T05:20:34.066Z,99.90
2018-09-19T05:23:02.270Z,99.90
2018-09-19T05:25:30.484Z,99.90
2018-09-19T05:27:58.718Z,99.90
2018-09-19T05:30:26.958Z,99.90
2018-09-19T05:32:55.169Z,99.90
2018-09-19T05:35:23.442Z,99.90
2018-09-19T05:37:51.657Z,99.90
2018-09-19T05:40:19.869Z,99.90
2018-09-19T05:42:48.135Z,99.90
2018-09-19T05:45:16.395Z,99.90
2018-09-19T05:47:44.610Z,99.90
2018-09-19T05:50:12.928Z,99.90
2018-09-19T05:52:41.150Z,99.90
2018-09-19T05:55:09.386Z,99.90
2018-09-19T05:57:37.640Z,99.90
2018-09-19T06:00:05.855Z,99.90
2018-09-19T06:02:34.127Z,99.90
2018-09-19T06:05:02.396Z,99.90
2018-09-19T06:07:30.536Z,99.90
2018-09-19T06:09:58.759Z,99.90
2018-09-19T06:12:27.038Z,99.90
2018-09-19T06:14:55.321Z,99.90
2018-09-19T06:17:23.746Z,99.90
2018-09-19T06:19:53.065Z,99.90
2018-09-19T06:22:21.274Z,99.90
2018-09-19T06:24:49.528Z,99.90
2018-09-19T06:27:18.126Z,99.90
2018-09-19T06:29:46.433Z,99.90
2018-09-19T06:32:14.645Z,99.90
2018-09-19T06:34:42.915Z,99.90
2018-09-19T06:37:11.429Z,99.90
2018-09-19T06:39:39.605Z,99.90
2018-09-19T06:42:08.811Z,99.90
2018-09-19T06:44:37.135Z,99.90
2018-09-19T06:47:05.510Z,99.90
2018-09-19T06:49:33.737Z,99.90
2018-09-19T06:52:02.085Z,99.90
2018-09-19T06:54:31.622Z,99.90
2018-09-19T06:56:59.848Z,99.90
2018-09-19T06:59:28.000Z,99.70
2018-09-19T07:01:56.144Z,98.60
2018-09-19T07:04:24.379Z,98.10
2018-09-19T07:06:52.721Z,96.50
2018-09-19T07:09:20.878Z,96.20
2018-09-19T07:11:49.032Z,95.70
2018-09-19T07:14:17.540Z,95.20
2018-09-19T07:16:45.792Z,94.60
2018-09-19T07:19:14.167Z,94.10
2018-09-19T07:21:42.378Z,93.10
2018-09-19T07:24:10.720Z,91.40
2018-09-19T07:26:38.955Z,90.90
2018-09-19T07:29:07.172Z,90.60
2018-09-19T07:31:35.388Z,90.00
2018-09-19T07:34:03.665Z,88.40
2018-09-19T07:36:31.880Z,87.80
2018-09-19T07:39:00.352Z,87.30
2018-09-19T07:43:56.596Z,85.30
2018-09-19T07:46:24.872Z,81.50
2018-09-19T07:48:53.769Z,72.10
2018-09-19T07:51:22.049Z,64.40
2018-09-19T07:56:18.253Z,54.60
2018-09-19T07:58:46.499Z,54.80
2018-09-19T08:01:14.833Z,51.50
2018-09-19T08:03:42.968Z,52.50
2018-09-19T08:06:11.218Z,51.20
2018-09-19T08:08:39.421Z,47.60
2018-09-19T08:11:08.030Z,48.10
2018-09-19T08:13:36.406Z,47.00
2018-09-19T08:16:04.629Z,47.10
2018-09-19T08:18:32.868Z,46.50
2018-09-19T08:21:01.058Z,48.60
2018-09-19T08:23:29.275Z,49.50
2018-09-19T08:25:57.740Z,48.80
2018-09-19T08:28:25.988Z,50.40
2018-09-19T08:30:54.870Z,51.70
2018-09-19T08:33:23.120Z,55.10
2018-09-19T08:35:51.335Z,57.70
2018-09-19T08:38:19.540Z,60.10
2018-09-19T08:40:47.791Z,62.30
2018-09-19T08:43:15.985Z,64.10
2018-09-19T08:45:44.512Z,63.50
2018-09-19T08:48:12.794Z,63.60
2018-09-19T08:50:41.034Z,64.20
2018-09-19T08:53:09.190Z,63.70
2018-09-19T08:55:37.463Z,63.50
2018-09-19T08:58:05.767Z,62.90
2018-09-19T09:00:34.305Z,62.60
2018-09-19T09:03:02.550Z,62.50
2018-09-19T09:05:30.733Z,58.90
2018-09-19T09:07:58.981Z,55.60
2018-09-19T09:10:27.256Z,51.30
2018-09-19T09:17:52.377Z,43.30
2018-09-19T09:20:20.670Z,41.60
2018-09-19T09:22:48.939Z,40.50
2018-09-19T09:25:17.136Z,40.90
2018-09-19T09:27:45.690Z,39.90
2018-09-19T09:30:14.121Z,39.60
2018-09-19T09:32:42.354Z,38.00
2018-09-19T09:35:10.600Z,37.90
2018-09-19T09:37:38.846Z,36.90
2018-09-19T09:40:07.066Z,36.50
2018-09-19T09:42:35.270Z,36.20
2018-09-19T09:45:03.498Z,37.10
2018-09-19T09:47:31.976Z,38.80
2018-09-19T09:50:00.216Z,37.70
2018-09-19T09:52:28.471Z,36.30
2018-09-19T09:54:56.727Z,37.10
2018-09-19T09:57:24.963Z,36.50
2018-09-19T09:59:53.155Z,35.80
2018-09-19T10:02:21.330Z,36.00
2018-09-19T10:04:49.567Z,35.50
2018-09-19T10:07:17.761Z,36.30
2018-09-19T10:09:45.991Z,36.90
2018-09-19T10:12:14.254Z,37.30
2018-09-19T10:14:42.451Z,36.90
2018-09-19T10:17:10.677Z,37.00
2018-09-19T10:19:38.900Z,36.90
2018-09-19T10:22:07.105Z,37.60
2018-09-19T10:24:41.905Z,39.60
2018-09-19T10:27:10.153Z,42.00
2018-09-19T10:29:38.423Z,42.90
2018-09-19T10:32:06.597Z,44.00
2018-09-19T10:34:35.068Z,44.20
2018-09-19T10:37:03.258Z,44.00
2018-09-19T10:39:31.453Z,44.60
2018-09-19T10:42:00.230Z,46.30
2018-09-19T10:44:28.426Z,46.70
2018-09-19T10:46:56.669Z,47.60
2018-09-19T10:49:24.933Z,47.70
2018-09-19T10:51:53.064Z,49.00
2018-09-19T10:54:21.283Z,49.30
2018-09-19T10:56:49.521Z,50.40
2018-09-19T10:59:17.705Z,51.30
2018-09-19T11:01:45.903Z,51.80
2018-09-19T11:04:14.109Z,51.50
2018-09-19T11:06:42.337Z,52.10
2018-09-19T11:09:11.444Z,51.80
2018-09-19T11:11:39.645Z,53.30
2018-09-19T11:14:07.852Z,54.30
2018-09-19T11:16:36.095Z,56.20
2018-09-19T11:19:04.289Z,56.00
2018-09-19T11:21:32.501Z,55.60
2018-09-19T11:24:00.720Z,55.80
2018-09-19T11:26:29.252Z,55.80
2018-09-19T11:28:57.447Z,55.20
2018-09-19T11:31:25.623Z,54.20
2018-09-19T11:33:53.830Z,54.80
2018-09-19T11:36:22.066Z,54.40
2018-09-19T11:38:50.288Z,54.50
2018-09-19T11:41:18.501Z,54.10
2018-09-19T11:43:46.720Z,54.40
2018-09-19T11:46:14.930Z,53.80
2018-09-19T11:48:43.188Z,53.50
2018-09-19T11:51:11.472Z,54.20
2018-09-19T11:53:39.701Z,55.00
2018-09-19T11:56:07.965Z,54.80
2018-09-19T11:58:36.179Z,55.00
2018-09-19T12:01:04.453Z,55.70
2018-09-19T12:03:32.705Z,56.50
2018-09-19T12:06:00.905Z,57.00
2018-09-19T12:08:29.116Z,57.50
2018-09-19T12:10:57.382Z,58.30
2018-09-19T12:13:25.571Z,57.80
2018-09-19T12:15:53.788Z,57.90
2018-09-19T12:18:22.001Z,57.70
2018-09-19T12:20:50.200Z,57.50
2018-09-19T12:23:18.420Z,56.90
2018-09-19T12:25:46.637Z,56.90
2018-09-19T12:28:14.839Z,55.90
2018-09-19T12:30:43.025Z,55.20
2018-09-19T12:33:11.304Z,54.10
2018-09-19T12:35:40.069Z,54.10
2018-09-19T12:38:08.382Z,53.70
2018-09-19T12:40:36.625Z,52.70
2018-09-19T12:43:05.342Z,53.10
2018-09-19T12:45:33.553Z,54.10
2018-09-19T12:48:01.857Z,54.20
2018-09-19T12:50:30.117Z,55.50
2018-09-19T12:52:58.357Z,55.90
2018-09-19T12:55:26.599Z,54.50
2018-09-19T12:57:54.852Z,55.30
2018-09-19T13:00:23.061Z,55.60
2018-09-19T13:02:51.265Z,56.00
2018-09-19T13:05:19.468Z,56.10
2018-09-19T13:07:47.698Z,56.00
2018-09-19T13:10:15.889Z,56.00
2018-09-19T13:12:45.003Z,55.30
2018-09-19T13:15:13.207Z,54.80
2018-09-19T13:17:41.422Z,55.10
2018-09-19T13:20:09.813Z,54.70
2018-09-19T13:22:38.122Z,54.90
2018-09-19T13:25:06.636Z,55.00
2018-09-19T13:27:35.165Z,55.00
2018-09-19T13:30:03.487Z,55.10
2018-09-19T13:32:31.721Z,55.10
2018-09-19T13:34:59.998Z,56.00
2018-09-19T13:37:28.263Z,56.00
2018-09-19T13:39:56.582Z,56.40
2018-09-19T13:42:24.842Z,57.00
2018-09-19T13:44:53.117Z,56.60
2018-09-19T13:47:21.384Z,56.20
2018-09-19T13:49:53.650Z,56.40
2018-09-19T13:52:21.909Z,55.40
2018-09-19T13:54:50.138Z,54.90
2018-09-19T13:57:18.425Z,54.40
2018-09-19T13:59:46.800Z,54.40
2018-09-19T14:02:15.742Z,54.20
2018-09-19T14:04:44.101Z,54.00
2018-09-19T14:07:12.403Z,54.60
2018-09-19T14:09:42.053Z,54.30
2018-09-19T14:12:10.466Z,54.40
2018-09-19T14:14:38.689Z,55.40
2018-09-19T14:17:07.361Z,55.80
2018-09-19T14:19:35.671Z,54.30
2018-09-19T14:22:03.966Z,53.40
2018-09-19T14:24:32.271Z,53.40
2018-09-19T14:27:00.569Z,53.20
2018-09-19T14:29:29.202Z,53.50
2018-09-19T14:31:57.447Z,53.50
2018-09-19T14:34:25.713Z,54.00
2018-09-19T14:36:53.968Z,53.70
2018-09-19T14:39:22.268Z,54.00
2018-09-19T14:41:50.750Z,54.30
2018-09-19T14:44:19.646Z,54.70
2018-09-19T14:46:48.814Z,54.90
2018-09-19T14:49:17.061Z,55.40
2018-09-19T14:51:45.353Z,55.10
2018-09-19T14:54:13.616Z,55.00
2018-09-19T14:56:41.825Z,55.20
2018-09-19T14:59:10.892Z,55.50
2018-09-19T15:01:39.116Z,55.60
2018-09-19T15:04:07.324Z,55.00
2018-09-19T15:06:35.599Z,55.60
2018-09-19T15:09:05.270Z,55.40
2018-09-19T15:11:33.494Z,55.50
2018-09-19T15:14:01.704Z,54.70
2018-09-19T15:16:29.919Z,55.70
2018-09-19T15:18:58.959Z,55.80
2018-09-19T15:21:27.196Z,56.10
2018-09-19T15:23:55.403Z,56.50
2018-09-19T15:26:24.102Z,56.60
2018-09-19T15:28:52.372Z,56.60
2018-09-19T15:31:20.676Z,56.70
2018-09-19T15:33:48.953Z,56.90
2018-09-19T15:36:17.233Z,57.20
2018-09-19T15:38:45.511Z,57.50
2018-09-19T15:41:13.737Z,57.60
2018-09-19T15:43:41.983Z,57.80
2018-09-19T15:46:10.245Z,58.30
2018-09-19T15:48:38.462Z,58.60
2018-09-19T15:51:07.820Z,58.60
2018-09-19T15:53:36.086Z,58.30
2018-09-19T15:56:04.405Z,58.30
2018-09-19T15:58:32.981Z,58.90
2018-09-19T16:01:01.200Z,58.40
2018-09-19T16:03:29.464Z,58.20
2018-09-19T16:05:57.766Z,57.80
2018-09-19T16:08:26.592Z,58.20
2018-09-19T16:10:55.114Z,57.90
2018-09-19T16:13:23.343Z,58.00
2018-09-19T16:15:51.541Z,58.20
2018-09-19T16:18:19.802Z,58.70
2018-09-19T16:20:48.071Z,58.90
2018-09-19T16:23:16.232Z,58.40
2018-09-19T16:25:44.445Z,58.70
2018-09-19T16:28:12.698Z,58.80
2018-09-19T16:30:40.918Z,59.40
2018-09-19T16:33:09.203Z,60.40
2018-09-19T16:35:37.438Z,61.40
2018-09-19T16:38:06.072Z,61.60
2018-09-19T16:40:34.344Z,62.40
2018-09-19T16:43:02.517Z,62.50
2018-09-19T16:45:30.808Z,63.00
2018-09-19T16:47:59.033Z,62.10
2018-09-19T16:50:27.318Z,61.70
2018-09-19T16:52:55.883Z,61.10
2018-09-19T16:55:24.713Z,61.50
2018-09-19T16:57:52.950Z,61.80
2018-09-19T17:00:21.219Z,62.60
2018-09-19T17:02:49.597Z,63.10
2018-09-19T17:05:17.864Z,64.10
2018-09-19T17:07:46.400Z,64.90
2018-09-19T17:10:15.470Z,65.90
2018-09-19T17:12:43.726Z,66.00
2018-09-19T17:15:12.154Z,66.70
2018-09-19T17:17:42.236Z,67.00
2018-09-19T17:20:10.701Z,67.50
2018-09-19T17:22:38.937Z,68.00
2018-09-19T17:25:07.162Z,68.00
2018-09-19T17:27:35.509Z,68.10
2018-09-19T17:30:04.061Z,68.30
2018-09-19T17:32:32.313Z,67.80
2018-09-19T17:35:00.602Z,68.10
2018-09-19T17:37:28.827Z,68.10
2018-09-19T17:39:57.078Z,68.00
2018-09-19T17:42:25.377Z,67.90
2018-09-19T17:44:53.602Z,68.10
2018-09-19T17:47:21.826Z,68.10
2018-09-19T17:49:50.192Z,68.40
2018-09-19T17:52:18.300Z,68.40
2018-09-19T17:54:46.501Z,68.80
2018-09-19T17:57:14.732Z,71.70
2018-09-19T17:59:43.273Z,72.30
2018-09-19T18:02:11.483Z,72.60
2018-09-19T18:04:39.789Z,73.60
2018-09-19T18:07:08.188Z,73.60
2018-09-19T18:12:04.398Z,73.70
2018-09-19T18:14:32.614Z,74.40
2018-09-19T18:17:00.834Z,74.90
2018-09-19T18:19:29.070Z,75.50
2018-09-19T18:21:57.700Z,75.60
2018-09-19T18:24:26.160Z,77.00
2018-09-19T18:26:54.651Z,76.50
2018-09-19T18:29:22.876Z,77.00
2018-09-19T18:31:51.097Z,76.60
2018-09-19T18:34:19.312Z,77.70
2018-09-19T18:36:47.572Z,77.40
2018-09-19T18:39:15.793Z,78.00
2018-09-19T18:41:44.484Z,78.70
2018-09-19T18:44:12.653Z,79.10
2018-09-19T18:46:41.259Z,79.20
2018-09-19T18:49:09.556Z,79.50
2018-09-19T18:51:37.761Z,78.60
2018-09-19T18:54:05.985Z,78.70
2018-09-19T18:56:34.349Z,79.80
2018-09-19T18:59:03.894Z,79.40
2018-09-19T19:01:32.148Z,79.40
2018-09-19T19:04:00.341Z,79.40
2018-09-19T19:06:28.869Z,79.80
2018-09-19T19:08:57.051Z,79.60
2018-09-19T19:11:25.292Z,80.10
2018-09-19T19:13:53.561Z,80.20
2018-09-19T19:16:21.848Z,80.20
2018-09-19T19:18:50.140Z,81.70
2018-09-19T19:21:18.356Z,80.60
2018-09-19T19:23:46.613Z,80.80
2018-09-19T19:26:14.862Z,79.70
2018-09-19T19:28:43.239Z,79.40
2018-09-19T19:31:11.454Z,78.90
2018-09-19T19:33:39.673Z,79.10
2018-09-19T19:36:08.183Z,78.70
2018-09-19T19:38:36.397Z,78.90
2018-09-19T19:41:04.644Z,78.10
2018-09-19T19:43:32.912Z,78.10
2018-09-19T19:46:01.144Z,78.90
2018-09-19T19:48:29.392Z,78.80
2018-09-19T19:50:57.668Z,78.90
2018-09-19T19:53:25.948Z,79.60
2018-09-19T19:55:54.207Z,78.70
2018-09-19T19:58:22.425Z,79.00
2018-09-19T20:00:50.614Z,78.60
2018-09-19T20:03:18.841Z,79.30
2018-09-19T20:05:47.160Z,80.70
2018-09-19T20:08:15.357Z,79.70
2018-09-19T20:10:43.693Z,79.60
2018-09-19T20:13:11.899Z,80.60
2018-09-19T20:15:40.094Z,81.70
2018-09-19T20:18:08.329Z,80.80
2018-09-19T20:20:36.531Z,81.80
2018-09-19T20:23:04.759Z,83.40
2018-09-19T20:25:32.991Z,83.60
2018-09-19T20:28:01.198Z,83.70
2018-09-19T20:32:57.357Z,86.80
2018-09-19T20:35:25.562Z,87.10
2018-09-19T20:37:53.752Z,85.40
2018-09-19T20:40:21.920Z,87.50
2018-09-19T20:42:50.171Z,87.10
2018-09-19T20:45:18.407Z,87.50
2018-09-19T20:47:46.665Z,88.10
2018-09-19T20:50:14.877Z,88.20
2018-09-19T20:52:43.097Z,87.70
2018-09-19T20:55:11.287Z,88.80
2018-09-19T20:57:39.528Z,88.00
2018-09-19T21:00:07.797Z,89.70
2018-09-19T21:02:36.007Z,90.80
2018-09-19T21:05:04.289Z,91.40
2018-09-19T21:07:32.467Z,91.70
2018-09-19T21:10:00.657Z,92.60
2018-09-19T21:12:28.879Z,92.70
2018-09-19T21:14:57.049Z,93.80
2018-09-19T21:19:53.232Z,95.00
2018-09-19T21:22:21.619Z,95.90
2018-09-19T21:24:49.651Z,96.00
2018-09-19T21:27:17.855Z,96.20
2018-09-19T21:29:46.051Z,96.00
2018-09-19T21:32:14.313Z,96.00
2018-09-19T21:34:42.643Z,96.20
2018-09-19T21:37:10.851Z,95.80
2018-09-19T21:39:39.054Z,94.80
2018-09-19T21:42:07.292Z,94.10
2018-09-19T21:44:35.508Z,94.30
2018-09-19T21:47:03.725Z,93.90
2018-09-19T21:49:31.939Z,93.30
2018-09-19T21:52:00.161Z,93.10
2018-09-19T21:54:28.389Z,92.90
2018-09-19T21:56:56.904Z,92.90
2018-09-19T21:59:25.148Z,92.50
2018-09-19T22:01:59.565Z,92.40
2018-09-19T22:04:28.104Z,92.30
2018-09-19T22:06:56.347Z,92.10
2018-09-19T22:09:24.574Z,92.20
2018-09-19T22:11:52.773Z,92.00
2018-09-19T22:14:20.972Z,91.90
2018-09-19T22:16:49.233Z,91.90
2018-09-19T22:19:17.512Z,91.90
2018-09-19T22:21:45.726Z,92.00
2018-09-19T22:24:13.916Z,91.90
2018-09-19T22:26:42.177Z,91.70
2018-09-19T22:29:10.415Z,91.70
2018-09-19T22:31:38.649Z,91.70
2018-09-19T22:34:06.857Z,91.70
2018-09-19T22:36:35.073Z,92.20
2018-09-19T22:39:03.758Z,92.00
2018-09-19T22:41:31.960Z,91.90
2018-09-19T22:44:00.217Z,92.00
2018-09-19T22:46:28.426Z,92.10
2018-09-19T22:48:56.636Z,92.10
2018-09-19T22:51:24.817Z,92.20
2018-09-19T22:53:53.061Z,92.30
2018-09-19T22:56:21.296Z,92.30
2018-09-19T22:58:49.603Z,92.30
2018-09-19T23:01:17.851Z,92.70
2018-09-19T23:03:46.059Z,92.40
2018-09-19T23:06:14.280Z,92.40
2018-09-19T23:08:42.473Z,92.40
2018-09-19T23:11:10.683Z,92.50
2018-09-19T23:13:38.922Z,92.60
2018-09-19T23:16:07.114Z,92.60
2018-09-19T23:18:35.290Z,92.60
2018-09-19T23:21:03.476Z,92.60
2018-09-19T23:23:31.701Z,93.00
2018-09-19T23:25:59.916Z,92.80
2018-09-19T23:28:28.154Z,92.80
2018-09-19T23:30:56.389Z,92.90
2018-09-19T23:33:24.591Z,93.00
2018-09-19T23:35:52.837Z,93.20
2018-09-19T23:38:21.074Z,93.50
2018-09-19T23:40:49.269Z,93.60
2018-09-19T23:43:17.502Z,93.60
2018-09-19T23:45:45.730Z,93.80
2018-09-19T23:48:13.953Z,94.00
2018-09-19T23:50:42.346Z,94.00
2018-09-19T23:53:10.561Z,94.10
2018-09-19T23:55:38.763Z,94.20
2018-09-19T23:58:07.000Z,94.40
